Mirai — JNSR — position and weather

sailwx.info

Track history (hours):
 
Tides and Currents Weather Stations Pressure Air Temp Water Temp Dewpoint Dewpoint Depression Visibility Wind Speed Wind Dir Waves Ship Positions

Oceanographic research ship Mirai (Japan)

Detailed information on ship capabilities available from University of Delaware's Ocean Information Center and ARCUS's ALIAS (Arctic Logistics Information and Support) project.

Last reported at 2019-Nov-29 01:31 UTC. Time now 2019-Dec-12 08:08 UTC.
Position N 01°12' E 103°35'.
Warning: this ship's position is 13 days out of date.

Length 128.6 m; beam 19 m; draft 6.9 m.

Type: Other ship. MMSI: 431939000.

Date/timePositionNaut miles runAvg speedWind from/ knotsBaromVisibWave heightAir tempDewpointWater temp
2019-Nov-29 01:31N 01°12' E 103°35'1211.4
2019-Nov-29 00:30N 01°16' E 103°46'3 0.1
2019-Nov-27 23:50N 01°16' E 103°49'4 1.7
2019-Nov-27 21:30N 01°16' E 103°53'0 0.0
2019-Nov-27 21:00N 01°16' E 103°53'0 0.0
2019-Nov-27 20:30N 01°16' E 103°53'0 0.0
2019-Nov-27 20:00N 01°16' E 103°53'0 0.0
2019-Nov-27 19:30N 01°16' E 103°53'0 0.0
2019-Nov-27 17:30N 01°16' E 103°53'0 0.0
2019-Nov-27 17:00N 01°16' E 103°53'0 0.1
2019-Nov-27 16:30N 01°16' E 103°53'0 0.1
2019-Nov-27 15:30N 01°16' E 103°53'0 0.1
2019-Nov-27 14:30N 01°16' E 103°53'0 0.1
2019-Nov-27 14:00N 01°16' E 103°53'0 0.0
2019-Nov-27 13:00N 01°16' E 103°53'0 0.0
2019-Nov-27 11:30N 01°16' E 103°53'0 0.0
2019-Nov-27 10:00N 01°16' E 103°53'0 0.0
2019-Nov-27 09:30N 01°16' E 103°53'0 0.0
2019-Nov-27 08:27N 01°16' E 103°53'0 0.0
2019-Nov-27 06:30N 01°16' E 103°53'0 0.0
2019-Nov-27 03:30N 01°16' E 103°53'0 0.0
2019-Nov-27 02:30N 01°16' E 103°53'0 0.0
2019-Nov-26 23:00N 01°16' E 103°53'0 0.8
2019-Nov-26 22:30N 01°15' E 103°53'6 6.1
2019-Nov-26 21:30N 01°14' E 103°47'3 1.6
2019-Nov-26 19:45N 01°16' E 103°49'0 0.0
2019-Nov-26 19:15N 01°16' E 103°49'0 0.0
2019-Nov-26 18:57N 01°16' E 103°49'0 0.0
2019-Nov-26 14:21N 01°16' E 103°49'0 0.0
2019-Nov-26 12:57N 01°16' E 103°49'0 0.0
2019-Nov-26 06:09N 01°16' E 103°49'0 0.0
2019-Nov-26 05:30N 01°16' E 103°49'0 0.0
2019-Nov-26 03:27N 01°16' E 103°49'1 0.2
2019-Nov-26 00:00N 01°16' E 103°48'  
Track history (hours):
 
Tides and Currents Weather Stations Pressure Air Temp Water Temp Dewpoint Dewpoint Depression Visibility Wind Speed Wind Dir Waves Ship Positions

Oceanographic research ship Mirai (Japan)

Detailed information on ship capabilities available from University of Delaware's Ocean Information Center and ARCUS's ALIAS (Arctic Logistics Information and Support) project.

Last reported at 2019-Nov-29 01:31 UTC. Time now 2019-Dec-12 08:08 UTC.
Position N 01°12' E 103°35'.
Warning: this ship's position is 13 days out of date.

Length 128.6 m; beam 19 m; draft 6.9 m.

Type: Other ship. MMSI: 431939000.

Date/timePositionNaut miles runAvg speedWind from/ knotsBaromVisibWave heightAir tempDewpointWater temp
2019-Nov-29 01:31N 01°12' E 103°35'1211.4
2019-Nov-29 00:30N 01°16' E 103°46'3 0.1
2019-Nov-27 23:50N 01°16' E 103°49'4 1.7
2019-Nov-27 21:30N 01°16' E 103°53'0 0.0
2019-Nov-27 21:00N 01°16' E 103°53'0 0.0
2019-Nov-27 20:30N 01°16' E 103°53'0 0.0
2019-Nov-27 20:00N 01°16' E 103°53'0 0.0
2019-Nov-27 19:30N 01°16' E 103°53'0 0.0
2019-Nov-27 17:30N 01°16' E 103°53'0 0.0
2019-Nov-27 17:00N 01°16' E 103°53'0 0.1
2019-Nov-27 16:30N 01°16' E 103°53'0 0.1
2019-Nov-27 15:30N 01°16' E 103°53'0 0.1
2019-Nov-27 14:30N 01°16' E 103°53'0 0.1
2019-Nov-27 14:00N 01°16' E 103°53'0 0.0
2019-Nov-27 13:00N 01°16' E 103°53'0 0.0
2019-Nov-27 11:30N 01°16' E 103°53'0 0.0
2019-Nov-27 10:00N 01°16' E 103°53'0 0.0
2019-Nov-27 09:30N 01°16' E 103°53'0 0.0
2019-Nov-27 08:27N 01°16' E 103°53'0 0.0
2019-Nov-27 06:30N 01°16' E 103°53'0 0.0
2019-Nov-27 03:30N 01°16' E 103°53'0 0.0
2019-Nov-27 02:30N 01°16' E 103°53'0 0.0
2019-Nov-26 23:00N 01°16' E 103°53'0 0.8
2019-Nov-26 22:30N 01°15' E 103°53'6 6.1
2019-Nov-26 21:30N 01°14' E 103°47'3 1.6
2019-Nov-26 19:45N 01°16' E 103°49'0 0.0
2019-Nov-26 19:15N 01°16' E 103°49'0 0.0
2019-Nov-26 18:57N 01°16' E 103°49'0 0.0
2019-Nov-26 14:21N 01°16' E 103°49'0 0.0
2019-Nov-26 12:57N 01°16' E 103°49'0 0.0
2019-Nov-26 06:09N 01°16' E 103°49'0 0.0
2019-Nov-26 05:30N 01°16' E 103°49'0 0.0
2019-Nov-26 03:27N 01°16' E 103°49'1 0.2
2019-Nov-26 00:00N 01°16' E 103°48'  

Dump ship's entire track history